Granite Canyon, Wyoming
Current Conditions -  °F | °C
As of 10:56 AM on Monday 24 Nov 2014 (Local Time) from KFEW Reporting Station
Few Clouds Few Clouds  
Wind Chill: 19°   Ceiling: Unl
Heat Index: 33°   Visibility: 10mi
Dew Point: 12°   Wind: 29mph
Humidity: 43%   Direction: 330°NNW
Pressure: 29.89"   Gusts: 41mph
Location:  41.0966°N, 105.138°W
Report Text: KFEW 241756Z AUTO 33025G36KT 10SM FEW160 01/M11 A2989 RMK AO2 PK WND 31036/04 SLP154 T00051109 10010 21031 52018 $
Loading
Personal Weather Stations






























Interactive Weather Map New forecast layout! Learn more

10-Day Weather Forecast

Advertisements
Track Severe Weather on mobile